sensor_id;sensor_type;location;lat;lon;timestamp;temperature;humidity
22456;DHT22;11395;53.204;6.502;2022-09-09T00:05:55;23.40;77.40
22456;DHT22;11395;53.204;6.502;2022-09-09T00:08:58;23.30;78.30
22456;DHT22;11395;53.204;6.502;2022-09-09T00:15:00;23.30;78.50
22456;DHT22;11395;53.204;6.502;2022-09-09T00:21:14;23.30;78.30
22456;DHT22;11395;53.204;6.502;2022-09-09T00:30:28;23.30;78.10
22456;DHT22;11395;53.204;6.502;2022-09-09T00:33:17;23.40;78.10
22456;DHT22;11395;53.204;6.502;2022-09-09T00:35:58;23.40;78.10
22456;DHT22;11395;53.204;6.502;2022-09-09T00:38:59;23.30;78.00
22456;DHT22;11395;53.204;6.502;2022-09-09T00:44:56;23.30;78.00
22456;DHT22;11395;53.204;6.502;2022-09-09T00:47:43;23.30;77.90
22456;DHT22;11395;53.204;6.502;2022-09-09T00:56:34;23.30;78.00
22456;DHT22;11395;53.204;6.502;2022-09-09T01:00:15;23.30;77.90
22456;DHT22;11395;53.204;6.502;2022-09-09T01:13:18;23.10;78.40
22456;DHT22;11395;53.204;6.502;2022-09-09T01:16:34;23.10;78.30
22456;DHT22;11395;53.204;6.502;2022-09-09T01:19:33;23.10;78.30
22456;DHT22;11395;53.204;6.502;2022-09-09T01:29:01;23.10;78.10
22456;DHT22;11395;53.204;6.502;2022-09-09T01:35:55;23.10;78.00
22456;DHT22;11395;53.204;6.502;2022-09-09T01:38:48;23.10;78.00
22456;DHT22;11395;53.204;6.502;2022-09-09T01:41:25;23.10;78.00
22456;DHT22;11395;53.204;6.502;2022-09-09T01:44:22;23.10;78.00
22456;DHT22;11395;53.204;6.502;2022-09-09T01:47:11;23.10;78.00
22456;DHT22;11395;53.204;6.502;2022-09-09T01:50:10;23.10;77.90
22456;DHT22;11395;53.204;6.502;2022-09-09T01:53:28;23.10;77.90
22456;DHT22;11395;53.204;6.502;2022-09-09T02:00:17;23.10;77.90
22456;DHT22;11395;53.204;6.502;2022-09-09T02:03:27;23.10;77.90
22456;DHT22;11395;53.204;6.502;2022-09-09T02:06:38;23.00;77.80
22456;DHT22;11395;53.204;6.502;2022-09-09T02:10:06;23.00;77.80
22456;DHT22;11395;53.204;6.502;2022-09-09T02:13:04;23.10;77.90
22456;DHT22;11395;53.204;6.502;2022-09-09T02:16:29;23.00;78.00
22456;DHT22;11395;53.204;6.502;2022-09-09T02:20:00;23.00;77.80
22456;DHT22;11395;53.204;6.502;2022-09-09T02:22:34;23.00;77.90
22456;DHT22;11395;53.204;6.502;2022-09-09T02:25:38;23.00;77.80
22456;DHT22;11395;53.204;6.502;2022-09-09T02:31:47;22.90;77.80
22456;DHT22;11395;53.204;6.502;2022-09-09T02:34:47;22.90;77.80
22456;DHT22;11395;53.204;6.502;2022-09-09T02:37:37;23.00;77.80
22456;DHT22;11395;53.204;6.502;2022-09-09T02:40:52;23.00;77.80
22456;DHT22;11395;53.204;6.502;2022-09-09T02:43:45;22.90;77.70
22456;DHT22;11395;53.204;6.502;2022-09-09T02:56:40;22.90;77.80
22456;DHT22;11395;53.204;6.502;2022-09-09T02:59:17;22.90;77.70
22456;DHT22;11395;53.204;6.502;2022-09-09T03:02:07;22.90;77.70
22456;DHT22;11395;53.204;6.502;2022-09-09T03:05:09;22.90;77.70
22456;DHT22;11395;53.204;6.502;2022-09-09T03:07:58;22.90;77.70
22456;DHT22;11395;53.204;6.502;2022-09-09T03:10:42;22.90;77.70
22456;DHT22;11395;53.204;6.502;2022-09-09T03:13:26;22.90;77.70
22456;DHT22;11395;53.204;6.502;2022-09-09T03:16:07;22.90;77.60
22456;DHT22;11395;53.204;6.502;2022-09-09T03:19:17;22.90;77.60
22456;DHT22;11395;53.204;6.502;2022-09-09T03:22:13;22.90;77.70
22456;DHT22;11395;53.204;6.502;2022-09-09T03:25:03;22.90;77.60
22456;DHT22;11395;53.204;6.502;2022-09-09T03:28:01;22.80;77.50
22456;DHT22;11395;53.204;6.502;2022-09-09T03:33:37;22.80;77.50
22456;DHT22;11395;53.204;6.502;2022-09-09T03:36:28;22.90;77.70
22456;DHT22;11395;53.204;6.502;2022-09-09T03:39:45;22.90;77.60
22456;DHT22;11395;53.204;6.502;2022-09-09T03:42:30;22.80;77.50
22456;DHT22;11395;53.204;6.502;2022-09-09T03:45:34;22.80;77.50
22456;DHT22;11395;53.204;6.502;2022-09-09T03:48:14;22.80;77.50
22456;DHT22;11395;53.204;6.502;2022-09-09T03:51:06;22.80;77.50
22456;DHT22;11395;53.204;6.502;2022-09-09T03:53:59;22.80;77.50
22456;DHT22;11395;53.204;6.502;2022-09-09T04:00:19;22.80;77.50
22456;DHT22;11395;53.204;6.502;2022-09-09T04:03:12;22.80;77.50
22456;DHT22;11395;53.204;6.502;2022-09-09T04:05:48;22.80;77.40
22456;DHT22;11395;53.204;6.502;2022-09-09T04:08:15;22.80;77.40
22456;DHT22;11395;53.204;6.502;2022-09-09T04:10:42;22.80;77.50
22456;DHT22;11395;53.204;6.502;2022-09-09T04:13:10;22.80;77.40
22456;DHT22;11395;53.204;6.502;2022-09-09T04:15:38;22.80;77.40
22456;DHT22;11395;53.204;6.502;2022-09-09T04:18:04;22.70;77.30
22456;DHT22;11395;53.204;6.502;2022-09-09T04:20:32;22.80;77.40
22456;DHT22;11395;53.204;6.502;2022-09-09T04:22:59;22.80;77.40
22456;DHT22;11395;53.204;6.502;2022-09-09T04:25:25;22.80;77.40
22456;DHT22;11395;53.204;6.502;2022-09-09T04:27:55;22.80;77.40
22456;DHT22;11395;53.204;6.502;2022-09-09T04:30:23;22.70;77.30
22456;DHT22;11395;53.204;6.502;2022-09-09T04:32:49;22.80;77.40
22456;DHT22;11395;53.204;6.502;2022-09-09T04:35:16;22.70;77.30
22456;DHT22;11395;53.204;6.502;2022-09-09T04:37:42;22.80;77.50
22456;DHT22;11395;53.204;6.502;2022-09-09T04:40:08;22.90;77.50
22456;DHT22;11395;53.204;6.502;2022-09-09T04:42:38;22.90;77.70
22456;DHT22;11395;53.204;6.502;2022-09-09T04:45:06;22.90;78.00
22456;DHT22;11395;53.204;6.502;2022-09-09T04:47:37;23.00;77.90
22456;DHT22;11395;53.204;6.502;2022-09-09T04:50:04;23.10;77.70
22456;DHT22;11395;53.204;6.502;2022-09-09T04:52:33;23.30;77.60
22456;DHT22;11395;53.204;6.502;2022-09-09T04:54:59;23.40;77.40
22456;DHT22;11395;53.204;6.502;2022-09-09T04:57:26;23.50;77.20
22456;DHT22;11395;53.204;6.502;2022-09-09T04:59:52;23.60;77.00
22456;DHT22;11395;53.204;6.502;2022-09-09T05:02:18;23.70;77.10
22456;DHT22;11395;53.204;6.502;2022-09-09T05:04:44;23.80;76.90
22456;DHT22;11395;53.204;6.502;2022-09-09T05:07:12;23.90;76.60
22456;DHT22;11395;53.204;6.502;2022-09-09T05:09:39;24.00;77.30
22456;DHT22;11395;53.204;6.502;2022-09-09T05:12:06;24.10;76.20
22456;DHT22;11395;53.204;6.502;2022-09-09T05:14:35;24.10;76.20
22456;DHT22;11395;53.204;6.502;2022-09-09T05:17:05;24.20;76.20
22456;DHT22;11395;53.204;6.502;2022-09-09T05:19:33;24.20;76.00
22456;DHT22;11395;53.204;6.502;2022-09-09T05:21:59;24.30;76.10
22456;DHT22;11395;53.204;6.502;2022-09-09T05:24:34;24.40;76.00
22456;DHT22;11395;53.204;6.502;2022-09-09T05:27:02;24.40;75.90
22456;DHT22;11395;53.204;6.502;2022-09-09T05:29:29;24.50;75.90
22456;DHT22;11395;53.204;6.502;2022-09-09T05:31:56;24.50;75.80
22456;DHT22;11395;53.204;6.502;2022-09-09T05:34:22;24.60;75.70
22456;DHT22;11395;53.204;6.502;2022-09-09T05:36:50;24.60;75.60
22456;DHT22;11395;53.204;6.502;2022-09-09T05:39:17;24.60;75.50
22456;DHT22;11395;53.204;6.502;2022-09-09T05:41:43;24.70;75.50
22456;DHT22;11395;53.204;6.502;2022-09-09T05:44:10;24.70;75.40
22456;DHT22;11395;53.204;6.502;2022-09-09T05:46:38;24.70;75.50
22456;DHT22;11395;53.204;6.502;2022-09-09T05:49:05;24.70;75.30
22456;DHT22;11395;53.204;6.502;2022-09-09T05:51:33;24.70;75.30
22456;DHT22;11395;53.204;6.502;2022-09-09T05:54:04;24.70;75.20
22456;DHT22;11395;53.204;6.502;2022-09-09T05:56:33;24.70;75.10
22456;DHT22;11395;53.204;6.502;2022-09-09T05:59:01;24.70;75.10
22456;DHT22;11395;53.204;6.502;2022-09-09T06:01:30;24.80;74.90
22456;DHT22;11395;53.204;6.502;2022-09-09T06:03:58;24.70;74.70
22456;DHT22;11395;53.204;6.502;2022-09-09T06:06:27;24.70;74.60
22456;DHT22;11395;53.204;6.502;2022-09-09T06:08:57;24.70;74.60
22456;DHT22;11395;53.204;6.502;2022-09-09T06:11:27;24.70;74.50
22456;DHT22;11395;53.204;6.502;2022-09-09T06:13:53;24.70;74.50
22456;DHT22;11395;53.204;6.502;2022-09-09T06:16:23;24.70;74.40
22456;DHT22;11395;53.204;6.502;2022-09-09T06:18:50;24.70;74.30
22456;DHT22;11395;53.204;6.502;2022-09-09T06:21:21;24.70;74.40
22456;DHT22;11395;53.204;6.502;2022-09-09T06:23:48;24.70;74.30
22456;DHT22;11395;53.204;6.502;2022-09-09T06:28:48;24.70;74.40
22456;DHT22;11395;53.204;6.502;2022-09-09T06:31:17;24.70;74.30
22456;DHT22;11395;53.204;6.502;2022-09-09T06:33:48;24.70;74.20
22456;DHT22;11395;53.204;6.502;2022-09-09T06:36:17;24.70;74.30
22456;DHT22;11395;53.204;6.502;2022-09-09T06:38:45;24.70;74.40
22456;DHT22;11395;53.204;6.502;2022-09-09T06:41:14;24.70;74.40
22456;DHT22;11395;53.204;6.502;2022-09-09T06:43:42;24.80;74.20
22456;DHT22;11395;53.204;6.502;2022-09-09T06:46:19;24.80;74.30
22456;DHT22;11395;53.204;6.502;2022-09-09T06:48:46;24.80;74.30
22456;DHT22;11395;53.204;6.502;2022-09-09T06:51:16;24.80;74.50
22456;DHT22;11395;53.204;6.502;2022-09-09T06:53:45;24.80;74.40
22456;DHT22;11395;53.204;6.502;2022-09-09T06:56:19;24.80;74.30
22456;DHT22;11395;53.204;6.502;2022-09-09T06:58:50;24.80;74.30
22456;DHT22;11395;53.204;6.502;2022-09-09T07:01:25;24.80;74.40
22456;DHT22;11395;53.204;6.502;2022-09-09T07:03:55;24.80;74.40
22456;DHT22;11395;53.204;6.502;2022-09-09T07:06:24;24.80;74.30
22456;DHT22;11395;53.204;6.502;2022-09-09T07:08:52;24.80;74.30
22456;DHT22;11395;53.204;6.502;2022-09-09T07:11:20;24.80;74.00
22456;DHT22;11395;53.204;6.502;2022-09-09T07:13:47;24.80;74.20
22456;DHT22;11395;53.204;6.502;2022-09-09T07:16:16;24.70;74.10
22456;DHT22;11395;53.204;6.502;2022-09-09T07:18:43;24.70;74.20
22456;DHT22;11395;53.204;6.502;2022-09-09T07:21:14;24.70;74.10
22456;DHT22;11395;53.204;6.502;2022-09-09T07:23:41;24.70;74.20
22456;DHT22;11395;53.204;6.502;2022-09-09T07:26:15;24.70;74.20
22456;DHT22;11395;53.204;6.502;2022-09-09T07:28:42;24.70;74.30
22456;DHT22;11395;53.204;6.502;2022-09-09T07:31:28;24.70;74.30
22456;DHT22;11395;53.204;6.502;2022-09-09T07:33:57;24.60;74.20
22456;DHT22;11395;53.204;6.502;2022-09-09T07:36:28;24.60;74.20
22456;DHT22;11395;53.204;6.502;2022-09-09T07:38:57;24.70;74.30
22456;DHT22;11395;53.204;6.502;2022-09-09T07:41:28;24.70;74.20
22456;DHT22;11395;53.204;6.502;2022-09-09T07:43:56;24.70;74.30
22456;DHT22;11395;53.204;6.502;2022-09-09T07:46:25;24.70;74.20
22456;DHT22;11395;53.204;6.502;2022-09-09T07:48:56;24.70;74.00
22456;DHT22;11395;53.204;6.502;2022-09-09T07:51:29;24.70;74.20
22456;DHT22;11395;53.204;6.502;2022-09-09T07:53:59;24.70;74.20
22456;DHT22;11395;53.204;6.502;2022-09-09T07:56:27;24.80;74.10
22456;DHT22;11395;53.204;6.502;2022-09-09T07:58:55;24.80;74.00
22456;DHT22;11395;53.204;6.502;2022-09-09T08:01:26;24.80;73.90
22456;DHT22;11395;53.204;6.502;2022-09-09T08:03:56;24.80;73.80
22456;DHT22;11395;53.204;6.502;2022-09-09T08:06:25;24.90;73.70
22456;DHT22;11395;53.204;6.502;2022-09-09T08:08:53;24.90;73.70
22456;DHT22;11395;53.204;6.502;2022-09-09T08:11:23;24.90;73.50
22456;DHT22;11395;53.204;6.502;2022-09-09T08:13:51;24.90;73.60
22456;DHT22;11395;53.204;6.502;2022-09-09T08:16:28;24.90;73.50
22456;DHT22;11395;53.204;6.502;2022-09-09T08:18:56;24.90;73.30
22456;DHT22;11395;53.204;6.502;2022-09-09T08:21:26;24.90;73.40
22456;DHT22;11395;53.204;6.502;2022-09-09T08:23:56;24.90;73.50
22456;DHT22;11395;53.204;6.502;2022-09-09T08:26:28;24.90;73.40
22456;DHT22;11395;53.204;6.502;2022-09-09T08:28:56;25.00;73.40
22456;DHT22;11395;53.204;6.502;2022-09-09T08:31:33;25.00;73.40
22456;DHT22;11395;53.204;6.502;2022-09-09T08:34:00;25.00;73.40
22456;DHT22;11395;53.204;6.502;2022-09-09T08:36:32;25.00;73.30
22456;DHT22;11395;53.204;6.502;2022-09-09T08:39:03;25.00;73.30
22456;DHT22;11395;53.204;6.502;2022-09-09T08:47:21;25.00;73.30
22456;DHT22;11395;53.204;6.502;2022-09-09T08:53:04;25.00;73.10
22456;DHT22;11395;53.204;6.502;2022-09-09T08:58:19;25.00;73.30
22456;DHT22;11395;53.204;6.502;2022-09-09T09:11:55;25.00;73.20
22456;DHT22;11395;53.204;6.502;2022-09-09T09:14:30;25.00;73.00
22456;DHT22;11395;53.204;6.502;2022-09-09T09:17:05;24.90;73.20
22456;DHT22;11395;53.204;6.502;2022-09-09T09:19:34;24.90;73.10
22456;DHT22;11395;53.204;6.502;2022-09-09T09:27:38;24.90;73.20
22456;DHT22;11395;53.204;6.502;2022-09-09T09:30:18;25.00;73.20
22456;DHT22;11395;53.204;6.502;2022-09-09T09:32:54;25.00;73.30
22456;DHT22;11395;53.204;6.502;2022-09-09T09:35:21;25.00;73.40
22456;DHT22;11395;53.204;6.502;2022-09-09T09:37:48;25.10;73.30
22456;DHT22;11395;53.204;6.502;2022-09-09T09:40:19;25.10;73.10
22456;DHT22;11395;53.204;6.502;2022-09-09T09:42:54;25.10;73.10
22456;DHT22;11395;53.204;6.502;2022-09-09T09:45:32;25.10;72.90
22456;DHT22;11395;53.204;6.502;2022-09-09T09:48:02;25.10;72.90
22456;DHT22;11395;53.204;6.502;2022-09-09T09:50:30;25.10;73.00
22456;DHT22;11395;53.204;6.502;2022-09-09T09:53:00;25.10;73.10
22456;DHT22;11395;53.204;6.502;2022-09-09T09:55:31;25.20;73.20
22456;DHT22;11395;53.204;6.502;2022-09-09T09:58:06;25.20;73.20
22456;DHT22;11395;53.204;6.502;2022-09-09T10:00:34;25.20;73.00
22456;DHT22;11395;53.204;6.502;2022-09-09T10:03:27;25.30;73.00
22456;DHT22;11395;53.204;6.502;2022-09-09T10:55:45;25.10;73.80
22456;DHT22;11395;53.204;6.502;2022-09-09T11:10:50;25.20;73.60
22456;DHT22;11395;53.204;6.502;2022-09-09T11:18:29;25.20;73.70
22456;DHT22;11395;53.204;6.502;2022-09-09T11:21:40;25.20;73.80
22456;DHT22;11395;53.204;6.502;2022-09-09T11:43:34;25.30;73.50
22456;DHT22;11395;53.204;6.502;2022-09-09T11:46:17;25.30;73.50
22456;DHT22;11395;53.204;6.502;2022-09-09T11:49:00;25.30;73.60
22456;DHT22;11395;53.204;6.502;2022-09-09T11:51:29;25.30;73.60
22456;DHT22;11395;53.204;6.502;2022-09-09T11:58:05;25.30;73.60
22456;DHT22;11395;53.204;6.502;2022-09-09T12:00:36;25.30;73.40
22456;DHT22;11395;53.204;6.502;2022-09-09T12:03:32;25.30;73.40
22456;DHT22;11395;53.204;6.502;2022-09-09T12:06:29;25.40;73.50
22456;DHT22;11395;53.204;6.502;2022-09-09T12:09:08;25.40;73.40
22456;DHT22;11395;53.204;6.502;2022-09-09T12:11:39;25.40;73.40
22456;DHT22;11395;53.204;6.502;2022-09-09T12:14:20;25.40;73.40
22456;DHT22;11395;53.204;6.502;2022-09-09T12:16:47;25.40;73.40
22456;DHT22;11395;53.204;6.502;2022-09-09T12:19:22;25.40;73.40
22456;DHT22;11395;53.204;6.502;2022-09-09T12:21:51;25.40;73.30
22456;DHT22;11395;53.204;6.502;2022-09-09T12:27:33;25.40;73.30
22456;DHT22;11395;53.204;6.502;2022-09-09T12:30:11;25.40;73.20
22456;DHT22;11395;53.204;6.502;2022-09-09T12:32:40;25.40;73.20
22456;DHT22;11395;53.204;6.502;2022-09-09T12:35:11;25.40;73.20
22456;DHT22;11395;53.204;6.502;2022-09-09T12:47:46;25.30;73.20
22456;DHT22;11395;53.204;6.502;2022-09-09T12:50:33;25.30;73.30
22456;DHT22;11395;53.204;6.502;2022-09-09T12:53:11;25.30;73.30
22456;DHT22;11395;53.204;6.502;2022-09-09T12:55:54;25.40;73.30
22456;DHT22;11395;53.204;6.502;2022-09-09T12:58:25;25.40;73.20
22456;DHT22;11395;53.204;6.502;2022-09-09T13:00:53;25.40;73.00
22456;DHT22;11395;53.204;6.502;2022-09-09T13:03:22;25.40;73.10
22456;DHT22;11395;53.204;6.502;2022-09-09T13:05:57;25.40;73.10
22456;DHT22;11395;53.204;6.502;2022-09-09T13:08:28;25.50;73.10
22456;DHT22;11395;53.204;6.502;2022-09-09T13:17:57;25.40;73.00
22456;DHT22;11395;53.204;6.502;2022-09-09T13:21:30;25.50;73.10
22456;DHT22;11395;53.204;6.502;2022-09-09T13:23:38;25.40;73.10
22456;DHT22;11395;53.204;6.502;2022-09-09T13:26:33;25.40;73.20
22456;DHT22;11395;53.204;6.502;2022-09-09T13:48:10;25.30;73.30
22456;DHT22;11395;53.204;6.502;2022-09-09T13:50:40;25.30;73.00
22456;DHT22;11395;53.204;6.502;2022-09-09T13:53:07;25.30;73.00
22456;DHT22;11395;53.204;6.502;2022-09-09T13:55:36;25.30;73.10
22456;DHT22;11395;53.204;6.502;2022-09-09T13:58:05;25.30;73.10
22456;DHT22;11395;53.204;6.502;2022-09-09T14:00:34;25.20;73.10
22456;DHT22;11395;53.204;6.502;2022-09-09T14:03:00;25.20;73.10
22456;DHT22;11395;53.204;6.502;2022-09-09T14:05:33;25.30;73.10
22456;DHT22;11395;53.204;6.502;2022-09-09T14:08:00;25.30;73.10
22456;DHT22;11395;53.204;6.502;2022-09-09T14:14:29;25.20;73.00
22456;DHT22;11395;53.204;6.502;2022-09-09T14:17:29;25.30;73.20
22456;DHT22;11395;53.204;6.502;2022-09-09T14:19:56;25.30;72.90
22456;DHT22;11395;53.204;6.502;2022-09-09T14:22:23;25.30;72.80
22456;DHT22;11395;53.204;6.502;2022-09-09T14:24:50;25.30;72.80
22456;DHT22;11395;53.204;6.502;2022-09-09T14:27:32;25.30;72.70
22456;DHT22;11395;53.204;6.502;2022-09-09T14:30:13;25.30;72.80
22456;DHT22;11395;53.204;6.502;2022-09-09T14:36:38;25.30;73.00
22456;DHT22;11395;53.204;6.502;2022-09-09T14:39:07;25.30;73.10
22456;DHT22;11395;53.204;6.502;2022-09-09T14:41:34;25.30;73.10
22456;DHT22;11395;53.204;6.502;2022-09-09T14:44:00;25.30;73.10
22456;DHT22;11395;53.204;6.502;2022-09-09T14:46:42;25.30;73.10
22456;DHT22;11395;53.204;6.502;2022-09-09T15:08:15;25.40;73.10
22456;DHT22;11395;53.204;6.502;2022-09-09T15:11:07;25.50;73.10
22456;DHT22;11395;53.204;6.502;2022-09-09T15:14:11;25.50;72.90
22456;DHT22;11395;53.204;6.502;2022-09-09T15:16:44;25.50;73.00
22456;DHT22;11395;53.204;6.502;2022-09-09T15:19:10;25.70;72.80
22456;DHT22;11395;53.204;6.502;2022-09-09T15:26:18;25.90;72.80
22456;DHT22;11395;53.204;6.502;2022-09-09T15:43:29;26.20;73.70
22456;DHT22;11395;53.204;6.502;2022-09-09T16:21:26;26.00;76.60
22456;DHT22;11395;53.204;6.502;2022-09-09T16:24:09;26.00;76.80
22456;DHT22;11395;53.204;6.502;2022-09-09T16:43:42;25.80;77.40
22456;DHT22;11395;53.204;6.502;2022-09-09T16:49:58;25.80;77.60
22456;DHT22;11395;53.204;6.502;2022-09-09T16:52:58;25.70;77.60
22456;DHT22;11395;53.204;6.502;2022-09-09T16:55:58;25.70;77.20
22456;DHT22;11395;53.204;6.502;2022-09-09T17:10:21;25.60;76.90
22456;DHT22;11395;53.204;6.502;2022-09-09T17:41:59;25.40;76.10
22456;DHT22;11395;53.204;6.502;2022-09-09T17:45:14;25.40;76.00
22456;DHT22;11395;53.204;6.502;2022-09-09T17:58:14;25.30;76.20
22456;DHT22;11395;53.204;6.502;2022-09-09T18:24:00;25.20;77.80
22456;DHT22;11395;53.204;6.502;2022-09-09T18:26:54;25.20;78.20
22456;DHT22;11395;53.204;6.502;2022-09-09T18:29:24;25.10;78.00
22456;DHT22;11395;53.204;6.502;2022-09-09T19:05:07;25.10;78.10
22456;DHT22;11395;53.204;6.502;2022-09-09T19:07:33;25.00;78.00
22456;DHT22;11395;53.204;6.502;2022-09-09T19:10:10;25.00;78.10
22456;DHT22;11395;53.204;6.502;2022-09-09T19:17:01;25.00;78.20
22456;DHT22;11395;53.204;6.502;2022-09-09T19:19:32;25.00;78.10
22456;DHT22;11395;53.204;6.502;2022-09-09T19:22:02;25.00;78.20
22456;DHT22;11395;53.204;6.502;2022-09-09T19:27:48;25.00;78.20
22456;DHT22;11395;53.204;6.502;2022-09-09T19:30:20;24.90;78.40
22456;DHT22;11395;53.204;6.502;2022-09-09T19:33:12;24.90;78.50
22456;DHT22;11395;53.204;6.502;2022-09-09T19:35:39;25.00;78.50
22456;DHT22;11395;53.204;6.502;2022-09-09T19:38:35;25.00;78.40
22456;DHT22;11395;53.204;6.502;2022-09-09T19:41:03;24.90;78.30
22456;DHT22;11395;53.204;6.502;2022-09-09T19:43:36;24.90;78.50
22456;DHT22;11395;53.204;6.502;2022-09-09T19:46:16;24.90;78.40
22456;DHT22;11395;53.204;6.502;2022-09-09T19:48:57;24.90;78.40
22456;DHT22;11395;53.204;6.502;2022-09-09T19:51:33;24.90;78.40
22456;DHT22;11395;53.204;6.502;2022-09-09T19:54:21;24.90;78.40
22456;DHT22;11395;53.204;6.502;2022-09-09T19:56:48;24.90;78.40
22456;DHT22;11395;53.204;6.502;2022-09-09T19:59:18;24.90;78.50
22456;DHT22;11395;53.204;6.502;2022-09-09T20:02:26;24.90;78.70
22456;DHT22;11395;53.204;6.502;2022-09-09T20:14:02;24.80;78.60
22456;DHT22;11395;53.204;6.502;2022-09-09T20:16:34;24.80;78.60
22456;DHT22;11395;53.204;6.502;2022-09-09T20:19:09;24.80;78.60
22456;DHT22;11395;53.204;6.502;2022-09-09T20:21:44;24.80;78.90
22456;DHT22;11395;53.204;6.502;2022-09-09T20:24:17;24.80;78.70
22456;DHT22;11395;53.204;6.502;2022-09-09T20:26:47;24.80;78.70
22456;DHT22;11395;53.204;6.502;2022-09-09T20:29:18;24.80;78.90
22456;DHT22;11395;53.204;6.502;2022-09-09T20:31:51;24.80;78.80
22456;DHT22;11395;53.204;6.502;2022-09-09T20:34:20;24.80;78.80
22456;DHT22;11395;53.204;6.502;2022-09-09T20:36:52;24.80;78.80
22456;DHT22;11395;53.204;6.502;2022-09-09T21:19:28;24.50;79.20
22456;DHT22;11395;53.204;6.502;2022-09-09T21:22:03;24.50;79.20
22456;DHT22;11395;53.204;6.502;2022-09-09T21:24:35;24.50;79.20
22456;DHT22;11395;53.204;6.502;2022-09-09T21:27:15;24.50;79.20
22456;DHT22;11395;53.204;6.502;2022-09-09T21:29:41;24.40;79.10
22456;DHT22;11395;53.204;6.502;2022-09-09T21:32:25;24.50;79.20
22456;DHT22;11395;53.204;6.502;2022-09-09T21:35:00;24.40;79.20
22456;DHT22;11395;53.204;6.502;2022-09-09T21:37:42;24.40;79.20
22456;DHT22;11395;53.204;6.502;2022-09-09T21:40:19;24.40;79.20
22456;DHT22;11395;53.204;6.502;2022-09-09T21:42:51;24.40;79.20
22456;DHT22;11395;53.204;6.502;2022-09-09T21:45:23;24.40;79.20
22456;DHT22;11395;53.204;6.502;2022-09-09T21:54:00;24.30;79.10
22456;DHT22;11395;53.204;6.502;2022-09-09T21:56:35;24.30;79.20
22456;DHT22;11395;53.204;6.502;2022-09-09T21:59:04;24.30;79.20
22456;DHT22;11395;53.204;6.502;2022-09-09T22:01:42;24.20;79.10
22456;DHT22;11395;53.204;6.502;2022-09-09T22:04:35;24.20;79.10
22456;DHT22;11395;53.204;6.502;2022-09-09T22:07:25;24.20;79.10
22456;DHT22;11395;53.204;6.502;2022-09-09T22:10:16;24.20;79.10
22456;DHT22;11395;53.204;6.502;2022-09-09T22:12:48;24.20;79.10
22456;DHT22;11395;53.204;6.502;2022-09-09T22:15:17;24.20;79.10
22456;DHT22;11395;53.204;6.502;2022-09-09T22:17:43;24.20;79.20
22456;DHT22;11395;53.204;6.502;2022-09-09T22:20:09;24.20;79.10
22456;DHT22;11395;53.204;6.502;2022-09-09T22:22:37;24.20;79.20
22456;DHT22;11395;53.204;6.502;2022-09-09T22:25:05;24.10;79.10
22456;DHT22;11395;53.204;6.502;2022-09-09T22:27:32;24.10;79.10
22456;DHT22;11395;53.204;6.502;2022-09-09T22:29:58;24.10;79.10
22456;DHT22;11395;53.204;6.502;2022-09-09T22:32:25;24.10;79.10
22456;DHT22;11395;53.204;6.502;2022-09-09T22:34:52;24.10;79.10
22456;DHT22;11395;53.204;6.502;2022-09-09T22:37:18;24.10;79.10
22456;DHT22;11395;53.204;6.502;2022-09-09T22:39:44;24.10;79.10
22456;DHT22;11395;53.204;6.502;2022-09-09T22:42:11;24.10;79.30
22456;DHT22;11395;53.204;6.502;2022-09-09T22:44:37;24.10;79.20
22456;DHT22;11395;53.204;6.502;2022-09-09T22:47:09;24.10;79.40
22456;DHT22;11395;53.204;6.502;2022-09-09T22:49:36;24.00;79.40
22456;DHT22;11395;53.204;6.502;2022-09-09T22:52:05;24.00;79.40
22456;DHT22;11395;53.204;6.502;2022-09-09T22:54:33;24.00;79.30
22456;DHT22;11395;53.204;6.502;2022-09-09T22:57:00;24.00;79.30
22456;DHT22;11395;53.204;6.502;2022-09-09T22:59:26;24.00;79.30
22456;DHT22;11395;53.204;6.502;2022-09-09T23:05:33;24.00;78.70
22456;DHT22;11395;53.204;6.502;2022-09-09T23:08:00;23.90;79.60
22456;DHT22;11395;53.204;6.502;2022-09-09T23:10:26;23.80;79.70
22456;DHT22;11395;53.204;6.502;2022-09-09T23:12:57;23.80;79.70
22456;DHT22;11395;53.204;6.502;2022-09-09T23:15:23;23.80;79.70
22456;DHT22;11395;53.204;6.502;2022-09-09T23:17:50;23.80;79.60
22456;DHT22;11395;53.204;6.502;2022-09-09T23:20:19;23.80;79.50
22456;DHT22;11395;53.204;6.502;2022-09-09T23:22:50;23.80;79.50
22456;DHT22;11395;53.204;6.502;2022-09-09T23:25:19;23.80;79.40
22456;DHT22;11395;53.204;6.502;2022-09-09T23:27:46;23.80;79.40
22456;DHT22;11395;53.204;6.502;2022-09-09T23:30:13;23.80;79.30
22456;DHT22;11395;53.204;6.502;2022-09-09T23:32:40;23.80;79.30
22456;DHT22;11395;53.204;6.502;2022-09-09T23:35:06;23.80;79.20
22456;DHT22;11395;53.204;6.502;2022-09-09T23:37:33;23.80;79.20
22456;DHT22;11395;53.204;6.502;2022-09-09T23:40:00;23.80;79.20
22456;DHT22;11395;53.204;6.502;2022-09-09T23:42:27;23.80;79.20
22456;DHT22;11395;53.204;6.502;2022-09-09T23:44:54;23.80;79.20
22456;DHT22;11395;53.204;6.502;2022-09-09T23:47:24;23.80;79.20
22456;DHT22;11395;53.204;6.502;2022-09-09T23:49:54;23.80;79.10
22456;DHT22;11395;53.204;6.502;2022-09-09T23:52:29;23.80;79.10
22456;DHT22;11395;53.204;6.502;2022-09-09T23:54:58;23.80;79.10
22456;DHT22;11395;53.204;6.502;2022-09-09T23:57:25;23.80;79.00
22456;DHT22;11395;53.204;6.502;2022-09-09T23:59:54;23.80;79.10
